createdAt,value
2022-12-11T00:00:12.014Z,18.23
2022-12-11T00:02:44.820Z,17.52
2022-12-11T00:05:18.468Z,17.80
2022-12-11T00:07:51.601Z,19.12
2022-12-11T00:10:24.608Z,18.42
2022-12-11T00:12:57.391Z,20.15
2022-12-11T00:15:30.673Z,19.25
2022-12-11T00:18:03.492Z,18.98
2022-12-11T00:20:36.843Z,19.37
2022-12-11T00:23:11.128Z,19.17
2022-12-11T00:25:46.214Z,19.48
2022-12-11T00:28:22.199Z,19.73
2022-12-11T00:30:55.368Z,18.37
2022-12-11T00:33:29.940Z,18.50
2022-12-11T00:36:02.705Z,19.15
2022-12-11T00:38:35.537Z,18.57
2022-12-11T00:41:09.130Z,18.43
2022-12-11T00:43:42.657Z,19.10
2022-12-11T00:46:15.424Z,18.92
2022-12-11T00:48:50.222Z,19.98
2022-12-11T00:51:22.872Z,19.52
2022-12-11T00:53:55.611Z,18.80
2022-12-11T00:56:28.388Z,18.10
2022-12-11T00:59:01.541Z,18.27
2022-12-11T01:01:34.545Z,18.62
2022-12-11T01:04:07.660Z,20.82
2022-12-11T01:06:41.607Z,20.27
2022-12-11T01:09:31.991Z,20.17
2022-12-11T01:12:05.376Z,18.52
2022-12-11T01:14:38.411Z,18.45
2022-12-11T01:17:11.521Z,17.75
2022-12-11T01:19:44.301Z,16.45
2022-12-11T01:22:16.974Z,18.20
2022-12-11T01:24:50.023Z,19.20
2022-12-11T01:27:23.023Z,20.62
2022-12-11T01:29:56.202Z,21.02
2022-12-11T01:32:30.022Z,18.30
2022-12-11T01:35:05.726Z,18.12
2022-12-11T01:37:38.606Z,18.23
2022-12-11T01:40:15.014Z,19.95
2022-12-11T01:42:48.356Z,18.75
2022-12-11T01:45:39.780Z,18.48
2022-12-11T01:48:17.294Z,19.98
2022-12-11T01:51:02.708Z,18.65
2022-12-11T01:53:44.945Z,18.40
2022-12-11T01:56:18.281Z,17.52
2022-12-11T01:58:55.576Z,17.42
2022-12-11T02:01:35.787Z,17.37
2022-12-11T02:04:11.248Z,18.42
2022-12-11T02:06:47.167Z,18.45
2022-12-11T02:09:23.912Z,17.55
2022-12-11T02:12:28.877Z,17.25
2022-12-11T02:15:21.477Z,17.73
2022-12-11T02:18:28.636Z,17.35
2022-12-11T02:21:21.336Z,17.00
2022-12-11T02:24:16.737Z,17.12
2022-12-11T02:27:06.336Z,17.00
2022-12-11T02:30:04.328Z,16.65
2022-12-11T02:32:47.433Z,17.52
2022-12-11T02:35:29.780Z,15.45
2022-12-11T02:38:06.978Z,16.93
2022-12-11T02:40:42.265Z,16.57
2022-12-11T02:43:16.926Z,18.15
2022-12-11T02:45:50.712Z,16.15
2022-12-11T02:48:25.397Z,18.05
2022-12-11T02:51:00.187Z,16.12
2022-12-11T02:53:36.158Z,15.05
2022-12-11T02:56:16.739Z,16.05
2022-12-11T02:58:58.287Z,15.63
2022-12-11T03:01:29.343Z,18.02
2022-12-11T03:04:02.081Z,15.43
2022-12-11T03:06:49.724Z,16.05
2022-12-11T03:09:22.917Z,14.87
2022-12-11T03:11:55.708Z,16.07
2022-12-11T03:14:28.449Z,17.92
2022-12-11T03:17:17.623Z,22.32
2022-12-11T03:20:10.259Z,21.95
2022-12-11T03:23:02.438Z,18.77
2022-12-11T03:25:44.381Z,17.40
2022-12-11T03:28:33.464Z,17.00
2022-12-11T03:31:11.286Z,17.77
2022-12-11T03:33:46.855Z,17.80
2022-12-11T03:36:23.805Z,17.57
2022-12-11T03:39:09.335Z,16.75
2022-12-11T03:41:42.453Z,18.95
2022-12-11T03:44:16.734Z,18.65
2022-12-11T03:46:50.078Z,17.57
2022-12-11T03:49:29.265Z,16.05
2022-12-11T03:52:03.012Z,16.70
2022-12-11T03:54:37.220Z,16.15
2022-12-11T03:57:12.314Z,15.58
2022-12-11T03:59:45.131Z,17.20
2022-12-11T04:02:18.083Z,17.82
2022-12-11T04:04:51.012Z,16.25
2022-12-11T04:07:24.314Z,14.90
2022-12-11T04:09:57.737Z,16.62
2022-12-11T04:12:30.877Z,16.40
2022-12-11T04:15:03.975Z,14.98
2022-12-11T04:17:56.567Z,14.43
2022-12-11T04:20:47.663Z,15.15
2022-12-11T04:23:39.100Z,15.68
2022-12-11T04:26:18.555Z,16.55
2022-12-11T04:28:52.255Z,16.10
2022-12-11T04:31:25.769Z,15.30
2022-12-11T04:33:58.563Z,14.87
2022-12-11T04:36:31.603Z,14.45
2022-12-11T04:39:06.358Z,14.75
2022-12-11T04:41:39.323Z,15.28
2022-12-11T04:44:12.330Z,14.53
2022-12-11T04:46:45.496Z,15.50
2022-12-11T04:49:18.790Z,15.25
2022-12-11T04:51:51.415Z,13.50
2022-12-11T04:54:25.722Z,14.45
2022-12-11T04:56:59.064Z,14.28
2022-12-11T04:59:32.944Z,15.05
2022-12-11T05:02:06.272Z,14.13
2022-12-11T05:04:39.536Z,13.40
2022-12-11T05:07:13.118Z,14.63
2022-12-11T05:09:46.313Z,13.35
2022-12-11T05:12:19.297Z,15.13
2022-12-11T05:14:55.526Z,12.98
2022-12-11T05:17:28.494Z,14.55
2022-12-11T05:20:01.307Z,13.35
2022-12-11T05:22:34.335Z,13.98
2022-12-11T05:25:09.117Z,16.07
2022-12-11T05:27:42.312Z,14.80
2022-12-11T05:30:15.486Z,14.53
2022-12-11T05:32:48.217Z,14.50
2022-12-11T05:35:21.067Z,13.70
2022-12-11T05:37:54.153Z,12.82
2022-12-11T05:40:27.213Z,14.10
2022-12-11T05:43:00.431Z,14.00
2022-12-11T05:45:33.642Z,13.93
2022-12-11T05:48:07.419Z,15.25
2022-12-11T05:50:40.462Z,14.30
2022-12-11T05:53:13.329Z,14.15
2022-12-11T05:55:46.283Z,14.65
2022-12-11T05:58:19.613Z,15.68
2022-12-11T06:00:52.277Z,15.48
2022-12-11T06:03:25.707Z,14.45
2022-12-11T06:05:58.889Z,13.75
2022-12-11T06:08:32.787Z,14.07
2022-12-11T06:11:07.103Z,13.15
2022-12-11T06:13:40.951Z,13.38
2022-12-11T06:16:14.638Z,13.48
2022-12-11T06:18:48.481Z,13.23
2022-12-11T06:21:27.459Z,12.90
2022-12-11T06:24:03.490Z,12.85
2022-12-11T06:26:36.379Z,12.80
2022-12-11T06:29:12.961Z,13.10
2022-12-11T06:31:43.702Z,14.20
2022-12-11T06:34:16.929Z,12.93
2022-12-11T06:36:49.559Z,12.78
2022-12-11T06:39:22.645Z,12.63
2022-12-11T06:41:55.534Z,13.65
2022-12-11T06:44:28.567Z,14.78
2022-12-11T06:47:01.633Z,17.00
2022-12-11T06:49:34.981Z,14.10
2022-12-11T06:52:09.968Z,13.30
2022-12-11T06:54:43.411Z,13.30
2022-12-11T06:57:16.657Z,13.70
2022-12-11T06:59:49.686Z,14.40
2022-12-11T07:02:23.275Z,14.98
2022-12-11T07:04:56.375Z,16.20
2022-12-11T07:07:29.693Z,13.60
2022-12-11T07:10:07.962Z,12.63
2022-12-11T07:12:37.946Z,12.80
2022-12-11T07:15:12.283Z,13.38
2022-12-11T07:17:45.609Z,13.35
2022-12-11T07:20:19.837Z,11.88
2022-12-11T07:22:53.091Z,13.83
2022-12-11T07:25:26.160Z,12.58
2022-12-11T07:27:59.046Z,12.73
2022-12-11T07:30:32.129Z,12.58
2022-12-11T07:33:06.060Z,15.58
2022-12-11T07:35:39.184Z,16.32
2022-12-11T07:38:12.275Z,13.95
2022-12-11T07:40:45.109Z,15.25
2022-12-11T07:43:17.906Z,14.85
2022-12-11T07:45:51.229Z,14.33
2022-12-11T07:48:24.194Z,13.47
2022-12-11T07:50:57.369Z,13.98
2022-12-11T07:53:30.192Z,14.07
2022-12-11T07:56:03.189Z,13.83
2022-12-11T07:58:37.197Z,13.75
2022-12-11T08:01:16.618Z,13.83
2022-12-11T08:03:50.910Z,11.75
2022-12-11T08:06:30.148Z,13.08
2022-12-11T08:09:05.444Z,11.75
2022-12-11T08:11:38.733Z,12.25
2022-12-11T08:14:11.675Z,13.53
2022-12-11T08:19:18.438Z,12.33
2022-12-11T08:21:51.283Z,11.57
2022-12-11T08:24:24.036Z,11.60
2022-12-11T08:26:57.133Z,11.80
2022-12-11T08:29:30.104Z,13.35
2022-12-11T08:32:06.352Z,11.57
2022-12-11T08:34:37.662Z,12.28
2022-12-11T08:37:10.699Z,11.93
2022-12-11T08:39:45.335Z,12.63
2022-12-11T08:42:18.178Z,12.53
2022-12-11T08:44:52.060Z,12.50
2022-12-11T08:47:27.770Z,11.57
2022-12-11T08:50:00.619Z,10.88
2022-12-11T08:52:37.092Z,11.97
2022-12-11T08:55:10.833Z,12.88
2022-12-11T08:57:43.868Z,10.63
2022-12-11T09:00:18.827Z,12.95
2022-12-11T09:02:51.769Z,11.97
2022-12-11T09:05:24.518Z,12.30
2022-12-11T09:07:57.422Z,12.35
2022-12-11T09:10:30.407Z,11.70
2022-12-11T09:13:04.164Z,20.00
2022-12-11T09:15:39.821Z,11.60
2022-12-11T09:18:12.686Z,11.70
2022-12-11T09:20:45.561Z,13.75
2022-12-11T09:23:18.558Z,11.75
2022-12-11T09:25:51.733Z,12.28
2022-12-11T09:28:25.722Z,11.97
2022-12-11T09:30:58.565Z,11.73
2022-12-11T09:33:31.601Z,11.40
2022-12-11T09:36:05.711Z,13.98
2022-12-11T09:38:39.381Z,11.48
2022-12-11T09:41:25.457Z,11.12
2022-12-11T09:44:42.909Z,10.82
2022-12-11T09:47:33.632Z,9.75
2022-12-11T09:50:12.153Z,10.55
2022-12-11T09:53:15.179Z,9.60
2022-12-11T09:55:58.465Z,10.80
2022-12-11T09:58:58.489Z,10.60
2022-12-11T10:01:39.797Z,10.03
2022-12-11T10:04:20.756Z,9.55
2022-12-11T10:07:17.189Z,10.03
2022-12-11T10:10:20.969Z,10.10
2022-12-11T10:13:32.460Z,9.28
2022-12-11T10:16:29.921Z,9.73
2022-12-11T10:19:03.939Z,9.23
2022-12-11T10:21:41.556Z,10.13
2022-12-11T10:27:29.256Z,10.85
2022-12-11T10:30:16.174Z,10.53
2022-12-11T10:33:24.977Z,10.05
2022-12-11T10:35:59.367Z,9.88
2022-12-11T10:38:35.862Z,9.95
2022-12-11T10:41:15.808Z,10.08
2022-12-11T10:43:52.189Z,9.83
2022-12-11T10:46:28.524Z,10.03
2022-12-11T10:49:02.908Z,9.80
2022-12-11T10:51:38.682Z,10.65
2022-12-11T10:56:52.462Z,10.58
2022-12-11T10:59:35.972Z,12.35
2022-12-11T11:02:24.483Z,10.05
2022-12-11T11:05:01.230Z,10.63
2022-12-11T11:07:35.120Z,10.53
2022-12-11T11:10:16.343Z,11.30
2022-12-11T11:12:53.749Z,11.00
2022-12-11T11:15:31.792Z,10.10
2022-12-11T11:18:12.702Z,10.58
2022-12-11T11:20:49.174Z,10.53
2022-12-11T11:23:23.582Z,10.28
2022-12-11T11:28:46.611Z,10.60
2022-12-11T11:31:21.173Z,10.90
2022-12-11T11:34:04.501Z,10.13
2022-12-11T11:36:38.937Z,11.63
2022-12-11T11:42:13.393Z,10.53
2022-12-11T11:45:03.519Z,10.20
2022-12-11T11:47:43.353Z,11.10
2022-12-11T11:50:30.124Z,10.78
2022-12-11T11:53:35.121Z,9.05
2022-12-11T11:56:36.556Z,9.13
2022-12-11T11:59:25.937Z,10.55
2022-12-11T12:02:00.925Z,10.32
2022-12-11T12:04:37.692Z,10.38
2022-12-11T12:07:52.594Z,10.15
2022-12-11T12:10:58.692Z,10.50
2022-12-11T12:13:53.743Z,10.68
2022-12-11T12:16:55.899Z,9.88
2022-12-11T12:19:19.567Z,9.78
2022-12-11T12:21:55.217Z,9.98
2022-12-11T12:24:48.256Z,10.18
2022-12-11T12:27:51.682Z,9.25
2022-12-11T12:30:17.393Z,8.95
2022-12-11T12:33:33.471Z,10.40
2022-12-11T12:36:25.963Z,8.95
2022-12-11T12:39:42.801Z,9.00
2022-12-11T12:42:49.325Z,9.88
2022-12-11T12:46:06.331Z,8.88
2022-12-11T12:48:40.122Z,10.35
2022-12-11T12:51:16.339Z,9.97
2022-12-11T12:54:01.693Z,13.30
2022-12-11T12:56:36.537Z,21.15
2022-12-11T12:59:24.872Z,12.10
2022-12-11T13:02:01.363Z,12.47
2022-12-11T13:04:55.877Z,13.28
2022-12-11T13:07:23.352Z,12.50
2022-12-11T13:10:24.698Z,12.13
2022-12-11T13:12:58.315Z,12.18
2022-12-11T13:15:40.956Z,11.30
2022-12-11T13:18:35.347Z,11.90
2022-12-11T13:21:36.006Z,13.72
2022-12-11T13:24:25.832Z,13.00
2022-12-11T13:27:00.740Z,12.95
2022-12-11T13:29:44.200Z,12.78
2022-12-11T13:32:25.120Z,11.50
2022-12-11T13:35:00.565Z,11.28
2022-12-11T13:37:42.637Z,10.75
2022-12-11T13:40:22.384Z,11.00
2022-12-11T13:43:01.183Z,12.28
2022-12-11T13:45:55.965Z,13.55
2022-12-11T13:51:26.195Z,11.22
2022-12-11T13:54:18.749Z,11.88
2022-12-11T13:57:01.322Z,11.85
2022-12-11T13:59:39.106Z,12.13
2022-12-11T14:02:25.419Z,12.00
2022-12-11T14:05:08.736Z,14.70
2022-12-11T14:07:46.582Z,14.23
2022-12-11T14:10:29.347Z,16.93
2022-12-11T14:13:05.660Z,13.13
2022-12-11T14:15:39.873Z,12.47
2022-12-11T14:18:23.088Z,11.95
2022-12-11T14:21:01.349Z,14.93
2022-12-11T14:23:37.730Z,13.13
2022-12-11T14:26:27.717Z,13.22
2022-12-11T14:29:01.361Z,12.95
2022-12-11T14:31:38.422Z,13.45
2022-12-11T14:34:26.065Z,13.80
2022-12-11T14:37:00.329Z,14.68
2022-12-11T14:39:39.957Z,12.35
2022-12-11T14:42:28.383Z,14.63
2022-12-11T14:45:24.092Z,12.35
2022-12-11T14:47:57.835Z,11.85
2022-12-11T14:50:38.365Z,12.43
2022-12-11T14:53:15.984Z,12.60
2022-12-11T14:55:50.666Z,12.82
2022-12-11T14:58:29.791Z,13.28
2022-12-11T15:01:06.651Z,16.20
2022-12-11T15:03:43.111Z,18.45
2022-12-11T15:06:33.121Z,16.87
2022-12-11T15:09:41.066Z,14.40
2022-12-11T15:12:20.566Z,13.62
2022-12-11T15:15:02.422Z,15.43
2022-12-11T15:17:37.759Z,13.62
2022-12-11T15:20:14.823Z,13.03
2022-12-11T15:22:47.985Z,14.30
2022-12-11T15:25:29.779Z,11.73
2022-12-11T15:28:03.073Z,13.15
2022-12-11T15:30:37.372Z,11.70
2022-12-11T15:33:20.037Z,13.58
2022-12-11T15:36:08.162Z,12.35
2022-12-11T15:38:42.476Z,12.47
2022-12-11T15:41:20.347Z,12.15
2022-12-11T15:43:58.988Z,11.88
2022-12-11T15:46:31.850Z,13.93
2022-12-11T15:49:07.894Z,11.68
2022-12-11T15:51:43.139Z,12.40
2022-12-11T15:54:15.544Z,11.48
2022-12-11T15:56:48.311Z,13.50
2022-12-11T15:59:21.796Z,12.03
2022-12-11T16:01:55.178Z,11.12
2022-12-11T16:04:27.900Z,13.28
2022-12-11T16:07:03.498Z,12.88
2022-12-11T16:09:38.052Z,12.53
2022-12-11T16:12:12.186Z,12.75
2022-12-11T16:14:46.789Z,12.10
2022-12-11T16:17:20.146Z,12.90
2022-12-11T16:19:55.071Z,11.05
2022-12-11T16:22:28.030Z,12.20
2022-12-11T16:25:00.848Z,13.08
2022-12-11T16:27:34.680Z,12.23
2022-12-11T16:30:10.386Z,10.63
2022-12-11T16:32:43.708Z,11.55
2022-12-11T16:35:17.716Z,11.78
2022-12-11T16:37:57.425Z,11.33
2022-12-11T16:40:30.305Z,10.75
2022-12-11T16:43:04.099Z,13.20
2022-12-11T16:45:36.884Z,11.05
2022-12-11T16:48:10.121Z,10.95
2022-12-11T16:50:43.118Z,10.53
2022-12-11T16:53:17.826Z,10.23
2022-12-11T16:55:50.828Z,12.55
2022-12-11T16:58:24.629Z,11.90
2022-12-11T17:00:58.991Z,11.30
2022-12-11T17:03:33.433Z,12.33
2022-12-11T17:08:44.138Z,9.83
2022-12-11T17:11:21.225Z,10.35
2022-12-11T17:13:58.964Z,10.63
2022-12-11T17:16:33.060Z,9.93
2022-12-11T17:19:07.791Z,9.88
2022-12-11T17:21:40.781Z,10.38
2022-12-11T17:24:13.811Z,10.50
2022-12-11T17:26:46.766Z,11.20
2022-12-11T17:29:20.240Z,10.85
2022-12-11T17:31:53.060Z,12.07
2022-12-11T17:34:25.974Z,11.20
2022-12-11T17:36:58.874Z,10.78
2022-12-11T17:39:32.324Z,11.25
2022-12-11T17:42:05.966Z,11.15
2022-12-11T17:44:40.133Z,10.28
2022-12-11T17:47:13.246Z,10.13
2022-12-11T17:49:46.310Z,11.50
2022-12-11T17:52:19.248Z,10.63
2022-12-11T17:54:53.514Z,12.35
2022-12-11T17:57:26.332Z,11.57
2022-12-11T17:59:59.194Z,10.82
2022-12-11T18:02:33.851Z,10.88
2022-12-11T18:05:07.169Z,11.48
2022-12-11T18:07:40.555Z,10.82
2022-12-11T18:10:13.498Z,10.32
2022-12-11T18:12:47.287Z,10.88
2022-12-11T18:15:21.235Z,10.90
2022-12-11T18:17:53.925Z,9.78
2022-12-11T18:20:27.596Z,10.30
2022-12-11T18:23:02.255Z,10.48
2022-12-11T18:25:36.365Z,11.22
2022-12-11T18:28:09.307Z,10.15
2022-12-11T18:30:42.354Z,11.38
2022-12-11T18:33:15.564Z,10.95
2022-12-11T18:35:50.678Z,10.77
2022-12-11T18:38:24.255Z,10.93
2022-12-11T18:40:57.516Z,11.30
2022-12-11T18:43:30.375Z,10.60
2022-12-11T18:46:09.687Z,10.80
2022-12-11T18:48:44.372Z,11.75
2022-12-11T18:53:51.797Z,11.33
2022-12-11T18:56:24.675Z,10.98
2022-12-11T18:58:57.671Z,11.30
2022-12-11T19:01:33.544Z,10.45
2022-12-11T19:04:10.710Z,11.30
2022-12-11T19:06:41.484Z,11.38
2022-12-11T19:09:14.634Z,11.75
2022-12-11T19:11:47.978Z,11.48
2022-12-11T19:14:21.249Z,11.90
2022-12-11T19:16:54.647Z,11.08
2022-12-11T19:19:27.380Z,10.73
2022-12-11T19:22:00.918Z,11.18
2022-12-11T19:24:33.938Z,11.08
2022-12-11T19:27:13.082Z,11.95
2022-12-11T19:29:41.606Z,11.20
2022-12-11T19:32:14.946Z,11.48
2022-12-11T19:34:48.004Z,11.60
2022-12-11T19:37:21.018Z,11.55
2022-12-11T19:39:54.054Z,11.20
2022-12-11T19:42:29.516Z,10.53
2022-12-11T19:45:04.505Z,11.75
2022-12-11T19:47:37.986Z,12.80
2022-12-11T19:50:11.182Z,11.70
2022-12-11T19:52:46.377Z,11.35
2022-12-11T19:55:19.901Z,12.68
2022-12-11T19:57:53.437Z,12.53
2022-12-11T20:00:26.327Z,13.18
2022-12-11T20:02:59.908Z,12.70
2022-12-11T20:05:33.271Z,10.50
2022-12-11T20:08:42.432Z,11.57
2022-12-11T20:10:41.708Z,12.53
2022-12-11T20:13:15.575Z,12.33
2022-12-11T20:15:48.648Z,13.40
2022-12-11T20:18:21.586Z,13.22
2022-12-11T20:20:55.051Z,12.98
2022-12-11T20:23:28.582Z,14.10
2022-12-11T20:26:03.562Z,12.18
2022-12-11T20:28:36.789Z,13.65
2022-12-11T20:31:19.779Z,14.40
2022-12-11T20:33:52.226Z,13.40
2022-12-11T20:36:26.704Z,13.90
2022-12-11T20:38:59.626Z,13.28
2022-12-11T20:41:32.859Z,14.17
2022-12-11T20:44:06.573Z,13.60
2022-12-11T20:46:41.166Z,13.88
2022-12-11T20:49:14.205Z,13.05
2022-12-11T20:51:47.218Z,14.20
2022-12-11T20:54:20.360Z,13.40
2022-12-11T20:56:53.468Z,14.15
2022-12-11T20:59:27.035Z,13.35
2022-12-11T21:02:00.498Z,13.05
2022-12-11T21:04:34.946Z,13.13
2022-12-11T21:07:09.405Z,14.07
2022-12-11T21:09:42.802Z,14.35
2022-12-11T21:12:16.266Z,13.50
2022-12-11T21:14:49.069Z,14.05
2022-12-11T21:17:22.074Z,18.90
2022-12-11T21:19:54.881Z,14.68
2022-12-11T21:22:27.983Z,17.40
2022-12-11T21:25:00.981Z,15.60
2022-12-11T21:27:34.071Z,13.25
2022-12-11T21:30:08.211Z,13.08
2022-12-11T21:35:15.212Z,14.05
2022-12-11T21:37:48.849Z,13.95
2022-12-11T21:40:22.692Z,15.85
2022-12-11T21:42:55.531Z,13.88
2022-12-11T21:45:59.835Z,14.13
2022-12-11T21:48:03.667Z,13.70
2022-12-11T21:50:38.972Z,14.20
2022-12-11T21:53:12.188Z,16.50
2022-12-11T21:55:45.716Z,15.63
2022-12-11T21:58:18.813Z,13.90
2022-12-11T22:00:51.711Z,16.57
2022-12-11T22:03:24.839Z,13.93
2022-12-11T22:05:57.794Z,16.65
2022-12-11T22:08:30.623Z,17.07
2022-12-11T22:11:03.623Z,17.07
2022-12-11T22:13:37.015Z,15.32
2022-12-11T22:16:10.440Z,15.25
2022-12-11T22:18:43.878Z,14.98
2022-12-11T22:21:17.873Z,16.32
2022-12-11T22:23:50.806Z,17.23
2022-12-11T22:26:27.499Z,16.50
2022-12-11T22:29:00.601Z,15.88
2022-12-11T22:31:33.723Z,16.50
2022-12-11T22:34:06.775Z,17.77
2022-12-11T22:36:39.992Z,16.20
2022-12-11T22:39:12.999Z,16.73
2022-12-11T22:41:45.931Z,17.67
2022-12-11T22:44:21.965Z,17.45
2022-12-11T22:46:54.907Z,16.37
2022-12-11T22:49:27.846Z,15.63
2022-12-11T22:52:01.618Z,16.75
2022-12-11T22:54:35.662Z,16.37
2022-12-11T22:57:08.807Z,17.57
2022-12-11T22:59:41.934Z,17.82
2022-12-11T23:02:15.739Z,17.20
2022-12-11T23:04:48.375Z,16.23
2022-12-11T23:07:21.271Z,15.48
2022-12-11T23:09:54.637Z,17.05
2022-12-11T23:12:28.818Z,15.68
2022-12-11T23:15:01.652Z,15.98
2022-12-11T23:17:35.110Z,16.70
2022-12-11T23:20:09.651Z,16.42
2022-12-11T23:22:42.648Z,15.95
2022-12-11T23:25:16.565Z,15.10
2022-12-11T23:27:50.529Z,14.90
2022-12-11T23:30:24.332Z,15.83
2022-12-11T23:32:57.463Z,15.88
2022-12-11T23:35:30.400Z,15.80
2022-12-11T23:38:03.547Z,16.80
2022-12-11T23:40:37.095Z,14.80
2022-12-11T23:43:09.769Z,15.90
2022-12-11T23:45:47.284Z,15.43
2022-12-11T23:48:21.460Z,14.73
2022-12-11T23:50:56.016Z,15.55
2022-12-11T23:53:29.812Z,14.87
2022-12-11T23:56:08.474Z,15.68
2022-12-11T23:58:41.872Z,14.58
